sensor_id;sensor_type;location;lat;lon;timestamp;P1;durP1;ratioP1;P2;durP2;ratioP2
23714;SDS011;12036;50.858;4.472;2023-09-30T00:01:54;7.65;;;3.60;;
23714;SDS011;12036;50.858;4.472;2023-09-30T00:04:20;7.45;;;3.72;;
23714;SDS011;12036;50.858;4.472;2023-09-30T00:06:46;7.63;;;4.15;;
23714;SDS011;12036;50.858;4.472;2023-09-30T00:09:11;5.70;;;3.83;;
23714;SDS011;12036;50.858;4.472;2023-09-30T00:11:38;8.57;;;3.70;;
23714;SDS011;12036;50.858;4.472;2023-09-30T00:14:04;10.27;;;3.97;;
23714;SDS011;12036;50.858;4.472;2023-09-30T00:16:30;5.65;;;3.08;;
23714;SDS011;12036;50.858;4.472;2023-09-30T00:18:56;6.15;;;3.50;;
23714;SDS011;12036;50.858;4.472;2023-09-30T00:21:23;7.35;;;3.60;;
23714;SDS011;12036;50.858;4.472;2023-09-30T00:23:49;9.85;;;3.65;;
23714;SDS011;12036;50.858;4.472;2023-09-30T00:26:15;8.52;;;3.88;;
23714;SDS011;12036;50.858;4.472;2023-09-30T00:28:41;5.60;;;3.60;;
23714;SDS011;12036;50.858;4.472;2023-09-30T00:31:07;6.22;;;3.88;;
23714;SDS011;12036;50.858;4.472;2023-09-30T00:33:36;4.85;;;3.10;;
23714;SDS011;12036;50.858;4.472;2023-09-30T00:36:06;6.82;;;3.85;;
23714;SDS011;12036;50.858;4.472;2023-09-30T00:38:35;9.32;;;4.03;;
23714;SDS011;12036;50.858;4.472;2023-09-30T00:41:01;5.07;;;3.10;;
23714;SDS011;12036;50.858;4.472;2023-09-30T00:43:27;4.40;;;3.20;;
23714;SDS011;12036;50.858;4.472;2023-09-30T00:45:54;6.70;;;4.00;;
23714;SDS011;12036;50.858;4.472;2023-09-30T00:48:42;6.35;;;3.53;;
23714;SDS011;12036;50.858;4.472;2023-09-30T00:51:08;7.88;;;3.53;;
23714;SDS011;12036;50.858;4.472;2023-09-30T00:53:34;4.75;;;3.70;;
23714;SDS011;12036;50.858;4.472;2023-09-30T00:56:00;7.97;;;3.72;;
23714;SDS011;12036;50.858;4.472;2023-09-30T00:58:26;5.60;;;3.83;;
23714;SDS011;12036;50.858;4.472;2023-09-30T01:00:54;5.80;;;4.10;;
23714;SDS011;12036;50.858;4.472;2023-09-30T01:03:22;8.30;;;3.70;;
23714;SDS011;12036;50.858;4.472;2023-09-30T01:05:48;6.18;;;4.13;;
23714;SDS011;12036;50.858;4.472;2023-09-30T01:08:14;8.07;;;4.25;;
23714;SDS011;12036;50.858;4.472;2023-09-30T01:10:44;9.07;;;4.90;;
23714;SDS011;12036;50.858;4.472;2023-09-30T01:13:10;14.60;;;4.75;;
23714;SDS011;12036;50.858;4.472;2023-09-30T01:15:36;8.60;;;5.13;;
23714;SDS011;12036;50.858;4.472;2023-09-30T01:18:02;11.98;;;5.63;;
23714;SDS011;12036;50.858;4.472;2023-09-30T01:20:29;16.42;;;6.90;;
23714;SDS011;12036;50.858;4.472;2023-09-30T01:22:55;11.02;;;5.88;;
23714;SDS011;12036;50.858;4.472;2023-09-30T01:25:22;15.60;;;6.57;;
23714;SDS011;12036;50.858;4.472;2023-09-30T01:27:49;15.90;;;6.65;;
23714;SDS011;12036;50.858;4.472;2023-09-30T01:30:19;10.95;;;6.63;;
23714;SDS011;12036;50.858;4.472;2023-09-30T01:32:47;12.88;;;5.82;;
23714;SDS011;12036;50.858;4.472;2023-09-30T01:35:13;16.02;;;6.22;;
23714;SDS011;12036;50.858;4.472;2023-09-30T01:37:39;9.75;;;5.57;;
23714;SDS011;12036;50.858;4.472;2023-09-30T01:40:04;9.95;;;5.63;;
23714;SDS011;12036;50.858;4.472;2023-09-30T01:42:33;8.27;;;5.43;;
23714;SDS011;12036;50.858;4.472;2023-09-30T01:44:59;9.75;;;5.90;;
23714;SDS011;12036;50.858;4.472;2023-09-30T01:47:24;8.02;;;5.07;;
23714;SDS011;12036;50.858;4.472;2023-09-30T01:49:50;12.07;;;5.40;;
23714;SDS011;12036;50.858;4.472;2023-09-30T01:52:15;10.02;;;5.30;;
23714;SDS011;12036;50.858;4.472;2023-09-30T01:54:41;9.30;;;5.78;;
23714;SDS011;12036;50.858;4.472;2023-09-30T01:57:07;11.63;;;5.93;;
23714;SDS011;12036;50.858;4.472;2023-09-30T01:59:32;10.95;;;6.40;;
23714;SDS011;12036;50.858;4.472;2023-09-30T02:01:58;12.68;;;6.53;;
23714;SDS011;12036;50.858;4.472;2023-09-30T02:04:24;10.77;;;5.95;;
23714;SDS011;12036;50.858;4.472;2023-09-30T02:06:49;12.30;;;6.22;;
23714;SDS011;12036;50.858;4.472;2023-09-30T02:09:15;11.98;;;6.15;;
23714;SDS011;12036;50.858;4.472;2023-09-30T02:11:41;9.68;;;6.13;;
23714;SDS011;12036;50.858;4.472;2023-09-30T02:14:07;11.98;;;5.75;;
23714;SDS011;12036;50.858;4.472;2023-09-30T02:16:32;7.32;;;5.18;;
23714;SDS011;12036;50.858;4.472;2023-09-30T02:18:58;12.20;;;5.70;;
23714;SDS011;12036;50.858;4.472;2023-09-30T02:21:24;10.32;;;5.45;;
23714;SDS011;12036;50.858;4.472;2023-09-30T02:23:50;11.20;;;6.00;;
23714;SDS011;12036;50.858;4.472;2023-09-30T02:26:20;10.63;;;6.07;;
23714;SDS011;12036;50.858;4.472;2023-09-30T02:28:46;7.70;;;5.32;;
23714;SDS011;12036;50.858;4.472;2023-09-30T02:31:12;9.20;;;6.10;;
23714;SDS011;12036;50.858;4.472;2023-09-30T02:33:38;9.50;;;5.55;;
23714;SDS011;12036;50.858;4.472;2023-09-30T02:36:07;11.68;;;5.85;;
23714;SDS011;12036;50.858;4.472;2023-09-30T02:38:33;12.68;;;6.00;;
23714;SDS011;12036;50.858;4.472;2023-09-30T02:41:01;11.10;;;5.60;;
23714;SDS011;12036;50.858;4.472;2023-09-30T02:43:27;10.63;;;5.38;;
23714;SDS011;12036;50.858;4.472;2023-09-30T02:45:53;8.93;;;4.78;;
23714;SDS011;12036;50.858;4.472;2023-09-30T02:48:19;10.23;;;5.00;;
23714;SDS011;12036;50.858;4.472;2023-09-30T02:50:44;8.82;;;4.63;;
23714;SDS011;12036;50.858;4.472;2023-09-30T02:53:10;9.70;;;4.95;;
23714;SDS011;12036;50.858;4.472;2023-09-30T02:55:37;9.60;;;5.40;;
23714;SDS011;12036;50.858;4.472;2023-09-30T02:58:03;10.65;;;5.50;;
23714;SDS011;12036;50.858;4.472;2023-09-30T03:00:29;9.57;;;5.05;;
23714;SDS011;12036;50.858;4.472;2023-09-30T03:02:59;14.00;;;5.00;;
23714;SDS011;12036;50.858;4.472;2023-09-30T03:05:26;9.88;;;5.25;;
23714;SDS011;12036;50.858;4.472;2023-09-30T03:07:53;8.93;;;4.68;;
23714;SDS011;12036;50.858;4.472;2023-09-30T03:10:20;10.07;;;4.75;;
23714;SDS011;12036;50.858;4.472;2023-09-30T03:12:48;13.05;;;5.25;;
23714;SDS011;12036;50.858;4.472;2023-09-30T03:15:15;8.35;;;4.95;;
23714;SDS011;12036;50.858;4.472;2023-09-30T03:17:41;12.32;;;5.07;;
23714;SDS011;12036;50.858;4.472;2023-09-30T03:20:08;10.52;;;4.88;;
23714;SDS011;12036;50.858;4.472;2023-09-30T03:22:42;14.93;;;5.30;;
23714;SDS011;12036;50.858;4.472;2023-09-30T03:25:08;10.55;;;5.25;;
23714;SDS011;12036;50.858;4.472;2023-09-30T03:27:37;10.13;;;5.40;;
23714;SDS011;12036;50.858;4.472;2023-09-30T03:30:04;14.23;;;5.57;;
23714;SDS011;12036;50.858;4.472;2023-09-30T03:32:31;15.27;;;5.43;;
23714;SDS011;12036;50.858;4.472;2023-09-30T03:34:58;12.80;;;6.28;;
23714;SDS011;12036;50.858;4.472;2023-09-30T03:37:26;9.95;;;5.07;;
23714;SDS011;12036;50.858;4.472;2023-09-30T03:39:56;9.07;;;5.07;;
23714;SDS011;12036;50.858;4.472;2023-09-30T03:42:22;9.20;;;4.97;;
23714;SDS011;12036;50.858;4.472;2023-09-30T03:44:48;10.50;;;5.60;;
23714;SDS011;12036;50.858;4.472;2023-09-30T03:47:14;9.15;;;5.35;;
23714;SDS011;12036;50.858;4.472;2023-09-30T03:49:40;12.38;;;5.25;;
23714;SDS011;12036;50.858;4.472;2023-09-30T03:52:07;12.27;;;5.63;;
23714;SDS011;12036;50.858;4.472;2023-09-30T03:54:34;9.55;;;5.00;;
23714;SDS011;12036;50.858;4.472;2023-09-30T03:57:00;14.60;;;5.90;;
23714;SDS011;12036;50.858;4.472;2023-09-30T03:59:25;16.80;;;6.32;;
23714;SDS011;12036;50.858;4.472;2023-09-30T04:01:52;12.30;;;5.88;;
23714;SDS011;12036;50.858;4.472;2023-09-30T04:04:21;9.93;;;5.75;;
23714;SDS011;12036;50.858;4.472;2023-09-30T04:06:47;10.20;;;5.32;;
23714;SDS011;12036;50.858;4.472;2023-09-30T04:09:13;10.40;;;5.50;;
23714;SDS011;12036;50.858;4.472;2023-09-30T04:11:39;11.15;;;5.60;;
23714;SDS011;12036;50.858;4.472;2023-09-30T04:14:08;9.60;;;5.53;;
23714;SDS011;12036;50.858;4.472;2023-09-30T04:16:34;19.10;;;6.15;;
23714;SDS011;12036;50.858;4.472;2023-09-30T04:19:02;10.88;;;5.93;;
23714;SDS011;12036;50.858;4.472;2023-09-30T04:21:29;11.85;;;5.85;;
23714;SDS011;12036;50.858;4.472;2023-09-30T04:23:59;15.07;;;6.30;;
23714;SDS011;12036;50.858;4.472;2023-09-30T04:26:24;13.27;;;5.82;;
23714;SDS011;12036;50.858;4.472;2023-09-30T04:28:50;10.98;;;6.00;;
23714;SDS011;12036;50.858;4.472;2023-09-30T04:31:16;11.63;;;5.75;;
23714;SDS011;12036;50.858;4.472;2023-09-30T04:33:43;13.15;;;5.88;;
23714;SDS011;12036;50.858;4.472;2023-09-30T04:36:09;10.82;;;6.00;;
23714;SDS011;12036;50.858;4.472;2023-09-30T04:38:35;12.18;;;6.03;;
23714;SDS011;12036;50.858;4.472;2023-09-30T04:41:03;14.10;;;6.13;;
23714;SDS011;12036;50.858;4.472;2023-09-30T04:43:32;13.95;;;6.75;;
23714;SDS011;12036;50.858;4.472;2023-09-30T04:45:58;12.88;;;5.45;;
23714;SDS011;12036;50.858;4.472;2023-09-30T04:48:24;10.35;;;5.60;;
23714;SDS011;12036;50.858;4.472;2023-09-30T04:50:50;14.57;;;6.50;;
23714;SDS011;12036;50.858;4.472;2023-09-30T04:53:16;16.50;;;6.15;;
23714;SDS011;12036;50.858;4.472;2023-09-30T04:55:43;17.63;;;6.70;;
23714;SDS011;12036;50.858;4.472;2023-09-30T04:58:09;15.27;;;6.47;;
23714;SDS011;12036;50.858;4.472;2023-09-30T05:00:36;14.63;;;6.50;;
23714;SDS011;12036;50.858;4.472;2023-09-30T05:03:01;12.98;;;6.78;;
23714;SDS011;12036;50.858;4.472;2023-09-30T05:05:27;23.65;;;7.28;;
23714;SDS011;12036;50.858;4.472;2023-09-30T05:07:53;15.80;;;6.18;;
23714;SDS011;12036;50.858;4.472;2023-09-30T05:10:19;16.52;;;7.60;;
23714;SDS011;12036;50.858;4.472;2023-09-30T05:12:45;19.95;;;7.35;;
23714;SDS011;12036;50.858;4.472;2023-09-30T05:15:14;15.43;;;6.07;;
23714;SDS011;12036;50.858;4.472;2023-09-30T05:17:43;18.58;;;6.32;;
23714;SDS011;12036;50.858;4.472;2023-09-30T05:20:09;18.52;;;6.93;;
23714;SDS011;12036;50.858;4.472;2023-09-30T05:22:37;19.60;;;7.03;;
23714;SDS011;12036;50.858;4.472;2023-09-30T05:25:04;19.10;;;7.85;;
23714;SDS011;12036;50.858;4.472;2023-09-30T05:27:30;16.92;;;6.53;;
23714;SDS011;12036;50.858;4.472;2023-09-30T05:29:55;15.07;;;6.40;;
23714;SDS011;12036;50.858;4.472;2023-09-30T05:32:21;14.55;;;6.68;;
23714;SDS011;12036;50.858;4.472;2023-09-30T05:34:47;18.25;;;7.30;;
23714;SDS011;12036;50.858;4.472;2023-09-30T05:37:13;15.25;;;6.55;;
23714;SDS011;12036;50.858;4.472;2023-09-30T05:39:39;20.63;;;6.45;;
23714;SDS011;12036;50.858;4.472;2023-09-30T05:42:05;12.70;;;6.75;;
23714;SDS011;12036;50.858;4.472;2023-09-30T05:44:31;13.68;;;6.00;;
23714;SDS011;12036;50.858;4.472;2023-09-30T05:46:57;16.20;;;6.43;;
23714;SDS011;12036;50.858;4.472;2023-09-30T05:49:25;15.27;;;6.50;;
23714;SDS011;12036;50.858;4.472;2023-09-30T05:51:50;14.40;;;6.53;;
23714;SDS011;12036;50.858;4.472;2023-09-30T05:54:16;12.80;;;6.10;;
23714;SDS011;12036;50.858;4.472;2023-09-30T05:56:42;18.25;;;7.43;;
23714;SDS011;12036;50.858;4.472;2023-09-30T05:59:08;15.43;;;6.10;;
23714;SDS011;12036;50.858;4.472;2023-09-30T06:01:34;19.48;;;6.70;;
23714;SDS011;12036;50.858;4.472;2023-09-30T06:04:04;18.48;;;6.10;;
23714;SDS011;12036;50.858;4.472;2023-09-30T06:06:30;13.07;;;6.15;;
23714;SDS011;12036;50.858;4.472;2023-09-30T06:08:56;16.65;;;6.40;;
23714;SDS011;12036;50.858;4.472;2023-09-30T06:11:25;14.43;;;6.28;;
23714;SDS011;12036;50.858;4.472;2023-09-30T06:13:56;13.82;;;6.07;;
23714;SDS011;12036;50.858;4.472;2023-09-30T06:16:26;14.10;;;6.10;;
23714;SDS011;12036;50.858;4.472;2023-09-30T06:18:52;22.55;;;6.88;;
23714;SDS011;12036;50.858;4.472;2023-09-30T06:21:19;16.95;;;6.18;;
23714;SDS011;12036;50.858;4.472;2023-09-30T06:23:48;16.25;;;6.68;;
23714;SDS011;12036;50.858;4.472;2023-09-30T06:26:15;13.68;;;6.18;;
23714;SDS011;12036;50.858;4.472;2023-09-30T06:28:42;26.70;;;8.75;;
23714;SDS011;12036;50.858;4.472;2023-09-30T06:31:08;26.33;;;8.57;;
23714;SDS011;12036;50.858;4.472;2023-09-30T06:33:37;27.13;;;8.50;;
23714;SDS011;12036;50.858;4.472;2023-09-30T06:36:12;16.58;;;7.47;;
23714;SDS011;12036;50.858;4.472;2023-09-30T06:38:42;17.83;;;8.00;;
23714;SDS011;12036;50.858;4.472;2023-09-30T06:41:09;26.15;;;9.48;;
23714;SDS011;12036;50.858;4.472;2023-09-30T06:43:40;24.77;;;10.10;;
23714;SDS011;12036;50.858;4.472;2023-09-30T06:46:06;28.52;;;9.60;;
23714;SDS011;12036;50.858;4.472;2023-09-30T06:48:34;23.27;;;9.65;;
23714;SDS011;12036;50.858;4.472;2023-09-30T06:51:00;24.50;;;10.20;;
23714;SDS011;12036;50.858;4.472;2023-09-30T06:53:26;26.60;;;11.05;;
23714;SDS011;12036;50.858;4.472;2023-09-30T06:55:52;25.52;;;10.18;;
23714;SDS011;12036;50.858;4.472;2023-09-30T06:58:18;25.05;;;10.93;;
23714;SDS011;12036;50.858;4.472;2023-09-30T07:00:46;32.10;;;10.93;;
23714;SDS011;12036;50.858;4.472;2023-09-30T07:03:15;27.98;;;11.75;;
23714;SDS011;12036;50.858;4.472;2023-09-30T07:05:41;26.33;;;11.90;;
23714;SDS011;12036;50.858;4.472;2023-09-30T07:08:07;27.48;;;11.20;;
23714;SDS011;12036;50.858;4.472;2023-09-30T07:10:33;28.35;;;11.23;;
23714;SDS011;12036;50.858;4.472;2023-09-30T07:13:01;29.48;;;11.02;;
23714;SDS011;12036;50.858;4.472;2023-09-30T07:15:28;33.13;;;11.70;;
23714;SDS011;12036;50.858;4.472;2023-09-30T07:17:54;31.42;;;11.65;;
23714;SDS011;12036;50.858;4.472;2023-09-30T07:20:19;31.98;;;10.93;;
23714;SDS011;12036;50.858;4.472;2023-09-30T07:22:47;28.00;;;10.70;;
23714;SDS011;12036;50.858;4.472;2023-09-30T07:25:13;27.65;;;10.60;;
23714;SDS011;12036;50.858;4.472;2023-09-30T07:27:41;30.85;;;10.23;;
23714;SDS011;12036;50.858;4.472;2023-09-30T07:30:08;31.73;;;9.65;;
23714;SDS011;12036;50.858;4.472;2023-09-30T07:32:35;28.20;;;9.60;;
23714;SDS011;12036;50.858;4.472;2023-09-30T07:35:00;30.90;;;9.93;;
23714;SDS011;12036;50.858;4.472;2023-09-30T07:37:26;24.42;;;8.93;;
23714;SDS011;12036;50.858;4.472;2023-09-30T07:39:52;28.00;;;8.18;;
23714;SDS011;12036;50.858;4.472;2023-09-30T07:42:17;23.92;;;8.82;;
23714;SDS011;12036;50.858;4.472;2023-09-30T07:44:43;34.58;;;9.13;;
23714;SDS011;12036;50.858;4.472;2023-09-30T07:47:09;23.35;;;6.68;;
23714;SDS011;12036;50.858;4.472;2023-09-30T07:49:34;23.10;;;6.22;;
23714;SDS011;12036;50.858;4.472;2023-09-30T07:52:00;22.45;;;6.28;;
23714;SDS011;12036;50.858;4.472;2023-09-30T07:54:26;19.67;;;5.78;;
23714;SDS011;12036;50.858;4.472;2023-09-30T07:56:52;16.55;;;6.00;;
23714;SDS011;12036;50.858;4.472;2023-09-30T07:59:18;15.45;;;5.63;;
23714;SDS011;12036;50.858;4.472;2023-09-30T08:01:44;21.63;;;7.13;;
23714;SDS011;12036;50.858;4.472;2023-09-30T08:04:11;20.27;;;6.90;;
23714;SDS011;12036;50.858;4.472;2023-09-30T08:06:37;20.90;;;6.70;;
23714;SDS011;12036;50.858;4.472;2023-09-30T08:09:02;19.98;;;6.75;;
23714;SDS011;12036;50.858;4.472;2023-09-30T08:11:28;21.58;;;6.22;;
23714;SDS011;12036;50.858;4.472;2023-09-30T08:13:56;23.48;;;6.25;;
23714;SDS011;12036;50.858;4.472;2023-09-30T08:16:24;17.70;;;5.57;;
23714;SDS011;12036;50.858;4.472;2023-09-30T08:18:49;18.67;;;5.20;;
23714;SDS011;12036;50.858;4.472;2023-09-30T08:21:15;22.38;;;6.07;;
23714;SDS011;12036;50.858;4.472;2023-09-30T08:23:41;18.00;;;4.93;;
23714;SDS011;12036;50.858;4.472;2023-09-30T08:26:09;20.40;;;6.00;;
23714;SDS011;12036;50.858;4.472;2023-09-30T08:28:34;19.05;;;5.32;;
23714;SDS011;12036;50.858;4.472;2023-09-30T08:31:03;19.15;;;5.43;;
23714;SDS011;12036;50.858;4.472;2023-09-30T08:33:31;16.67;;;5.18;;
23714;SDS011;12036;50.858;4.472;2023-09-30T08:36:03;21.17;;;6.05;;
23714;SDS011;12036;50.858;4.472;2023-09-30T08:38:36;15.02;;;4.78;;
23714;SDS011;12036;50.858;4.472;2023-09-30T08:41:03;20.17;;;5.20;;
23714;SDS011;12036;50.858;4.472;2023-09-30T08:43:29;14.65;;;4.65;;
23714;SDS011;12036;50.858;4.472;2023-09-30T08:46:01;15.23;;;4.07;;
23714;SDS011;12036;50.858;4.472;2023-09-30T08:48:28;20.73;;;5.82;;
23714;SDS011;12036;50.858;4.472;2023-09-30T08:50:58;15.02;;;4.43;;
23714;SDS011;12036;50.858;4.472;2023-09-30T08:53:24;19.55;;;4.93;;
23714;SDS011;12036;50.858;4.472;2023-09-30T08:55:54;17.95;;;4.90;;
23714;SDS011;12036;50.858;4.472;2023-09-30T08:58:26;15.65;;;4.78;;
23714;SDS011;12036;50.858;4.472;2023-09-30T09:00:52;16.23;;;4.28;;
23714;SDS011;12036;50.858;4.472;2023-09-30T09:03:19;12.75;;;4.10;;
23714;SDS011;12036;50.858;4.472;2023-09-30T09:05:45;13.55;;;5.05;;
23714;SDS011;12036;50.858;4.472;2023-09-30T09:08:11;17.48;;;4.22;;
23714;SDS011;12036;50.858;4.472;2023-09-30T09:10:53;15.63;;;3.65;;
23714;SDS011;12036;50.858;4.472;2023-09-30T09:13:21;15.20;;;4.32;;
23714;SDS011;12036;50.858;4.472;2023-09-30T09:15:47;18.63;;;4.07;;
23714;SDS011;12036;50.858;4.472;2023-09-30T09:18:12;12.25;;;3.53;;
23714;SDS011;12036;50.858;4.472;2023-09-30T09:21:07;11.98;;;3.78;;
23714;SDS011;12036;50.858;4.472;2023-09-30T09:23:38;15.15;;;3.85;;
23714;SDS011;12036;50.858;4.472;2023-09-30T09:26:04;11.20;;;4.07;;
23714;SDS011;12036;50.858;4.472;2023-09-30T09:28:37;11.05;;;3.00;;
23714;SDS011;12036;50.858;4.472;2023-09-30T09:31:20;13.18;;;3.28;;
23714;SDS011;12036;50.858;4.472;2023-09-30T09:33:50;7.20;;;2.30;;
23714;SDS011;12036;50.858;4.472;2023-09-30T09:36:16;13.70;;;3.63;;
23714;SDS011;12036;50.858;4.472;2023-09-30T09:38:51;11.35;;;3.40;;
23714;SDS011;12036;50.858;4.472;2023-09-30T09:41:19;7.55;;;2.97;;
23714;SDS011;12036;50.858;4.472;2023-09-30T09:43:45;10.73;;;3.05;;
23714;SDS011;12036;50.858;4.472;2023-09-30T09:46:15;14.82;;;3.20;;
23714;SDS011;12036;50.858;4.472;2023-09-30T09:48:42;12.52;;;2.75;;
23714;SDS011;12036;50.858;4.472;2023-09-30T09:51:11;10.63;;;2.67;;
23714;SDS011;12036;50.858;4.472;2023-09-30T09:53:40;7.30;;;2.45;;
23714;SDS011;12036;50.858;4.472;2023-09-30T09:56:09;12.45;;;2.80;;
23714;SDS011;12036;50.858;4.472;2023-09-30T09:58:36;13.13;;;3.58;;
23714;SDS011;12036;50.858;4.472;2023-09-30T10:01:06;9.10;;;2.65;;
23714;SDS011;12036;50.858;4.472;2023-09-30T10:03:32;11.07;;;2.90;;
23714;SDS011;12036;50.858;4.472;2023-09-30T10:05:58;11.40;;;2.50;;
23714;SDS011;12036;50.858;4.472;2023-09-30T10:08:29;7.93;;;2.72;;
23714;SDS011;12036;50.858;4.472;2023-09-30T10:10:58;10.35;;;2.75;;
23714;SDS011;12036;50.858;4.472;2023-09-30T10:21:36;11.88;;;3.28;;
23714;SDS011;12036;50.858;4.472;2023-09-30T10:40:50;7.28;;;2.10;;
23714;SDS011;12036;50.858;4.472;2023-09-30T10:45:58;7.22;;;2.33;;
23714;SDS011;12036;50.858;4.472;2023-09-30T10:51:10;8.85;;;2.60;;
23714;SDS011;12036;50.858;4.472;2023-09-30T10:53:41;11.48;;;2.28;;
23714;SDS011;12036;50.858;4.472;2023-09-30T10:56:08;12.30;;;2.70;;
23714;SDS011;12036;50.858;4.472;2023-09-30T11:01:18;8.48;;;2.45;;
23714;SDS011;12036;50.858;4.472;2023-09-30T11:03:55;10.68;;;2.53;;
23714;SDS011;12036;50.858;4.472;2023-09-30T11:06:39;8.73;;;2.08;;
23714;SDS011;12036;50.858;4.472;2023-09-30T11:09:06;7.32;;;2.15;;
23714;SDS011;12036;50.858;4.472;2023-09-30T11:14:17;8.27;;;2.25;;
23714;SDS011;12036;50.858;4.472;2023-09-30T11:16:46;9.55;;;1.98;;
23714;SDS011;12036;50.858;4.472;2023-09-30T11:19:12;11.48;;;2.28;;
23714;SDS011;12036;50.858;4.472;2023-09-30T11:21:40;6.30;;;1.80;;
23714;SDS011;12036;50.858;4.472;2023-09-30T11:24:06;13.98;;;3.00;;
23714;SDS011;12036;50.858;4.472;2023-09-30T11:26:33;7.68;;;2.25;;
23714;SDS011;12036;50.858;4.472;2023-09-30T11:29:09;9.57;;;2.25;;
23714;SDS011;12036;50.858;4.472;2023-09-30T11:31:44;7.90;;;2.40;;
23714;SDS011;12036;50.858;4.472;2023-09-30T11:34:13;8.13;;;1.70;;
23714;SDS011;12036;50.858;4.472;2023-09-30T11:36:41;6.10;;;2.05;;
23714;SDS011;12036;50.858;4.472;2023-09-30T11:39:25;8.65;;;2.38;;
23714;SDS011;12036;50.858;4.472;2023-09-30T11:41:52;5.28;;;1.88;;
23714;SDS011;12036;50.858;4.472;2023-09-30T11:44:19;5.72;;;2.20;;
23714;SDS011;12036;50.858;4.472;2023-09-30T11:46:51;5.03;;;1.92;;
23714;SDS011;12036;50.858;4.472;2023-09-30T11:49:30;5.25;;;2.10;;
23714;SDS011;12036;50.858;4.472;2023-09-30T11:52:01;6.50;;;2.40;;
23714;SDS011;12036;50.858;4.472;2023-09-30T11:54:29;7.88;;;2.03;;
23714;SDS011;12036;50.858;4.472;2023-09-30T11:56:57;10.60;;;2.00;;
23714;SDS011;12036;50.858;4.472;2023-09-30T11:59:23;8.23;;;2.05;;
23714;SDS011;12036;50.858;4.472;2023-09-30T12:01:49;8.07;;;2.33;;
23714;SDS011;12036;50.858;4.472;2023-09-30T12:04:16;6.45;;;1.85;;
23714;SDS011;12036;50.858;4.472;2023-09-30T12:06:44;7.35;;;2.20;;
23714;SDS011;12036;50.858;4.472;2023-09-30T12:09:10;8.65;;;1.98;;
23714;SDS011;12036;50.858;4.472;2023-09-30T12:11:39;5.32;;;2.00;;
23714;SDS011;12036;50.858;4.472;2023-09-30T12:14:09;6.22;;;2.28;;
23714;SDS011;12036;50.858;4.472;2023-09-30T12:16:35;8.63;;;2.25;;
23714;SDS011;12036;50.858;4.472;2023-09-30T12:19:01;6.43;;;1.83;;
23714;SDS011;12036;50.858;4.472;2023-09-30T12:21:26;12.20;;;3.22;;
23714;SDS011;12036;50.858;4.472;2023-09-30T12:23:53;9.13;;;1.80;;
23714;SDS011;12036;50.858;4.472;2023-09-30T12:26:19;5.18;;;1.88;;
23714;SDS011;12036;50.858;4.472;2023-09-30T12:28:45;6.93;;;2.05;;
23714;SDS011;12036;50.858;4.472;2023-09-30T12:31:12;6.47;;;1.85;;
23714;SDS011;12036;50.858;4.472;2023-09-30T12:33:38;8.85;;;2.20;;
23714;SDS011;12036;50.858;4.472;2023-09-30T12:36:05;9.00;;;2.08;;
23714;SDS011;12036;50.858;4.472;2023-09-30T12:38:30;6.85;;;1.70;;
23714;SDS011;12036;50.858;4.472;2023-09-30T12:40:56;5.53;;;1.80;;
23714;SDS011;12036;50.858;4.472;2023-09-30T12:43:22;5.65;;;1.83;;
23714;SDS011;12036;50.858;4.472;2023-09-30T12:45:48;8.85;;;1.75;;
23714;SDS011;12036;50.858;4.472;2023-09-30T12:48:14;5.40;;;1.83;;
23714;SDS011;12036;50.858;4.472;2023-09-30T12:50:40;5.40;;;1.70;;
23714;SDS011;12036;50.858;4.472;2023-09-30T12:53:06;9.27;;;3.05;;
23714;SDS011;12036;50.858;4.472;2023-09-30T12:55:32;6.50;;;1.95;;
23714;SDS011;12036;50.858;4.472;2023-09-30T12:57:58;8.77;;;1.70;;
23714;SDS011;12036;50.858;4.472;2023-09-30T13:00:25;9.77;;;1.88;;
23714;SDS011;12036;50.858;4.472;2023-09-30T13:02:51;7.70;;;1.67;;
23714;SDS011;12036;50.858;4.472;2023-09-30T13:05:17;6.68;;;1.50;;
23714;SDS011;12036;50.858;4.472;2023-09-30T13:07:43;7.32;;;1.63;;
23714;SDS011;12036;50.858;4.472;2023-09-30T13:10:09;6.88;;;1.65;;
23714;SDS011;12036;50.858;4.472;2023-09-30T13:12:35;5.53;;;1.70;;
23714;SDS011;12036;50.858;4.472;2023-09-30T13:15:01;5.45;;;1.90;;
23714;SDS011;12036;50.858;4.472;2023-09-30T13:17:27;7.80;;;1.65;;
23714;SDS011;12036;50.858;4.472;2023-09-30T13:19:54;7.35;;;1.70;;
23714;SDS011;12036;50.858;4.472;2023-09-30T13:22:20;9.88;;;1.60;;
23714;SDS011;12036;50.858;4.472;2023-09-30T13:24:46;7.30;;;1.98;;
23714;SDS011;12036;50.858;4.472;2023-09-30T13:27:11;5.47;;;1.92;;
23714;SDS011;12036;50.858;4.472;2023-09-30T13:29:40;8.27;;;2.03;;
23714;SDS011;12036;50.858;4.472;2023-09-30T13:32:06;4.45;;;1.52;;
23714;SDS011;12036;50.858;4.472;2023-09-30T13:34:34;5.22;;;1.92;;
23714;SDS011;12036;50.858;4.472;2023-09-30T13:36:59;6.03;;;1.90;;
23714;SDS011;12036;50.858;4.472;2023-09-30T13:39:25;5.43;;;1.58;;
23714;SDS011;12036;50.858;4.472;2023-09-30T13:41:50;5.90;;;2.15;;
23714;SDS011;12036;50.858;4.472;2023-09-30T13:44:16;5.75;;;1.73;;
23714;SDS011;12036;50.858;4.472;2023-09-30T13:46:43;3.92;;;1.52;;
23714;SDS011;12036;50.858;4.472;2023-09-30T13:49:09;5.50;;;2.05;;
23714;SDS011;12036;50.858;4.472;2023-09-30T13:51:34;5.72;;;2.03;;
23714;SDS011;12036;50.858;4.472;2023-09-30T13:54:00;8.02;;;1.70;;
23714;SDS011;12036;50.858;4.472;2023-09-30T13:56:26;7.10;;;1.98;;
23714;SDS011;12036;50.858;4.472;2023-09-30T13:58:52;6.63;;;2.08;;
23714;SDS011;12036;50.858;4.472;2023-09-30T14:01:18;5.05;;;1.77;;
23714;SDS011;12036;50.858;4.472;2023-09-30T14:03:45;5.45;;;1.65;;
23714;SDS011;12036;50.858;4.472;2023-09-30T14:06:12;5.10;;;1.65;;
23714;SDS011;12036;50.858;4.472;2023-09-30T14:08:40;6.30;;;2.00;;
23714;SDS011;12036;50.858;4.472;2023-09-30T14:11:08;8.88;;;2.40;;
23714;SDS011;12036;50.858;4.472;2023-09-30T14:13:33;10.93;;;2.55;;
23714;SDS011;12036;50.858;4.472;2023-09-30T14:16:00;4.82;;;1.80;;
23714;SDS011;12036;50.858;4.472;2023-09-30T14:18:26;4.50;;;1.92;;
23714;SDS011;12036;50.858;4.472;2023-09-30T14:20:52;5.32;;;1.92;;
23714;SDS011;12036;50.858;4.472;2023-09-30T14:23:18;6.78;;;2.00;;
23714;SDS011;12036;50.858;4.472;2023-09-30T14:25:44;5.05;;;1.67;;
23714;SDS011;12036;50.858;4.472;2023-09-30T14:28:09;8.18;;;1.80;;
23714;SDS011;12036;50.858;4.472;2023-09-30T14:30:35;6.25;;;1.98;;
23714;SDS011;12036;50.858;4.472;2023-09-30T14:33:01;7.15;;;2.22;;
23714;SDS011;12036;50.858;4.472;2023-09-30T14:35:28;7.80;;;1.95;;
23714;SDS011;12036;50.858;4.472;2023-09-30T14:37:55;5.78;;;2.00;;
23714;SDS011;12036;50.858;4.472;2023-09-30T14:40:21;7.32;;;1.98;;
23714;SDS011;12036;50.858;4.472;2023-09-30T14:42:47;6.95;;;1.75;;
23714;SDS011;12036;50.858;4.472;2023-09-30T14:45:13;6.55;;;2.00;;
23714;SDS011;12036;50.858;4.472;2023-09-30T14:47:39;7.10;;;1.98;;
23714;SDS011;12036;50.858;4.472;2023-09-30T14:50:08;6.18;;;1.90;;
23714;SDS011;12036;50.858;4.472;2023-09-30T14:52:34;5.60;;;1.65;;
23714;SDS011;12036;50.858;4.472;2023-09-30T14:55:00;5.85;;;1.50;;
23714;SDS011;12036;50.858;4.472;2023-09-30T14:57:25;6.18;;;2.00;;
23714;SDS011;12036;50.858;4.472;2023-09-30T14:59:51;7.13;;;1.75;;
23714;SDS011;12036;50.858;4.472;2023-09-30T15:02:17;5.90;;;1.35;;
23714;SDS011;12036;50.858;4.472;2023-09-30T15:04:42;6.60;;;1.85;;
23714;SDS011;12036;50.858;4.472;2023-09-30T15:07:08;6.90;;;2.05;;
23714;SDS011;12036;50.858;4.472;2023-09-30T15:09:34;7.53;;;1.73;;
23714;SDS011;12036;50.858;4.472;2023-09-30T15:12:00;5.88;;;1.98;;
23714;SDS011;12036;50.858;4.472;2023-09-30T15:14:25;4.72;;;1.75;;
23714;SDS011;12036;50.858;4.472;2023-09-30T15:16:51;8.57;;;1.98;;